createdAt,value
2022-12-25T00:00:21.199Z,25.65
2022-12-25T00:03:07.435Z,31.00
2022-12-25T00:05:54.247Z,28.60
2022-12-25T00:08:40.431Z,28.33
2022-12-25T00:11:25.747Z,35.58
2022-12-25T00:14:11.187Z,28.02
2022-12-25T00:16:56.496Z,33.80
2022-12-25T00:19:41.832Z,30.45
2022-12-25T00:22:29.723Z,35.03
2022-12-25T00:25:15.448Z,36.13
2022-12-25T00:28:01.117Z,31.88
2022-12-25T00:30:46.959Z,35.92
2022-12-25T00:33:35.256Z,32.80
2022-12-25T00:36:22.957Z,27.80
2022-12-25T00:39:10.026Z,32.75
2022-12-25T00:42:13.977Z,31.40
2022-12-25T00:45:01.564Z,28.30
2022-12-25T00:47:47.127Z,29.38
2022-12-25T00:50:32.474Z,36.40
2022-12-25T00:53:18.044Z,30.77
2022-12-25T00:56:06.883Z,26.33
2022-12-25T00:58:52.221Z,30.90
2022-12-25T01:01:38.561Z,27.58
2022-12-25T01:04:24.298Z,33.30
2022-12-25T01:07:10.079Z,29.63
2022-12-25T01:10:13.904Z,33.03
2022-12-25T01:13:00.782Z,36.67
2022-12-25T01:15:46.026Z,39.63
2022-12-25T01:18:31.255Z,42.40
2022-12-25T01:21:18.202Z,39.53
2022-12-25T01:24:03.939Z,37.45
2022-12-25T01:26:49.779Z,43.83
2022-12-25T01:29:37.063Z,43.10
2022-12-25T01:32:22.466Z,43.10
2022-12-25T01:35:08.264Z,41.53
2022-12-25T01:37:53.562Z,48.42
2022-12-25T01:40:39.179Z,42.33
2022-12-25T01:43:27.683Z,44.75
2022-12-25T01:46:14.328Z,45.23
2022-12-25T01:49:03.691Z,42.97
2022-12-25T01:51:53.439Z,34.85
2022-12-25T01:54:42.221Z,39.95
2022-12-25T01:57:30.830Z,36.78
2022-12-25T02:00:16.633Z,36.47
2022-12-25T02:03:04.113Z,34.95
2022-12-25T02:05:51.125Z,33.53
2022-12-25T02:08:36.310Z,31.30
2022-12-25T02:11:39.796Z,26.33
2022-12-25T02:14:25.709Z,27.67
2022-12-25T02:17:21.192Z,26.48
2022-12-25T02:20:37.803Z,25.23
2022-12-25T02:24:11.833Z,21.73
2022-12-25T02:27:15.921Z,22.45
2022-12-25T02:30:06.686Z,22.97
2022-12-25T02:33:18.518Z,18.23
2022-12-25T02:36:09.235Z,18.42
2022-12-25T02:39:17.355Z,20.60
2022-12-25T02:42:08.297Z,23.45
2022-12-25T02:45:12.438Z,18.53
2022-12-25T02:48:18.046Z,18.85
2022-12-25T02:51:25.831Z,17.67
2022-12-25T02:54:33.068Z,19.58
2022-12-25T02:57:40.343Z,19.55
2022-12-25T03:00:45.176Z,22.00
2022-12-25T03:03:53.540Z,19.67
2022-12-25T03:06:46.665Z,20.52
2022-12-25T03:09:57.028Z,21.20
2022-12-25T03:12:50.202Z,22.52
2022-12-25T03:15:54.227Z,22.77
2022-12-25T03:18:41.321Z,21.42
2022-12-25T03:21:45.579Z,25.25
2022-12-25T03:24:49.666Z,24.98
2022-12-25T03:27:35.692Z,26.13
2022-12-25T03:30:40.611Z,23.57
2022-12-25T03:33:50.481Z,30.15
2022-12-25T03:36:49.323Z,26.08
2022-12-25T03:39:53.707Z,23.00
2022-12-25T03:42:45.342Z,27.70
2022-12-25T03:45:57.348Z,23.70
2022-12-25T03:49:08.676Z,24.67
2022-12-25T03:52:16.413Z,26.90
2022-12-25T03:55:25.499Z,25.48
2022-12-25T03:58:37.087Z,22.63
2022-12-25T04:01:40.872Z,23.47
2022-12-25T04:04:45.510Z,21.60
2022-12-25T04:07:50.844Z,21.83
2022-12-25T04:10:56.550Z,21.58
2022-12-25T04:14:00.423Z,18.15
2022-12-25T04:17:04.515Z,18.37
2022-12-25T04:20:08.097Z,16.88
2022-12-25T04:23:13.617Z,20.23
2022-12-25T04:26:17.803Z,16.35
2022-12-25T04:29:21.988Z,15.82
2022-12-25T04:32:26.064Z,16.00
2022-12-25T04:35:30.415Z,17.17
2022-12-25T04:38:20.982Z,13.10
2022-12-25T04:41:08.860Z,15.55
2022-12-25T04:43:54.158Z,17.35
2022-12-25T04:46:39.597Z,15.80
2022-12-25T04:49:25.315Z,14.55
2022-12-25T04:52:10.653Z,15.30
2022-12-25T04:54:57.211Z,14.25
2022-12-25T04:57:42.882Z,15.48
2022-12-25T05:00:28.251Z,15.87
2022-12-25T05:03:13.960Z,16.20
2022-12-25T05:06:00.834Z,15.50
2022-12-25T05:08:46.158Z,17.80
2022-12-25T05:11:32.936Z,16.75
2022-12-25T05:14:18.684Z,20.43
2022-12-25T05:17:04.153Z,17.08
2022-12-25T05:19:49.604Z,22.85
2022-12-25T05:22:34.960Z,21.92
2022-12-25T05:25:20.311Z,22.42
2022-12-25T05:28:07.107Z,25.37
2022-12-25T05:30:56.451Z,24.90
2022-12-25T05:33:42.150Z,23.92
2022-12-25T05:36:28.435Z,23.65
2022-12-25T05:39:13.923Z,24.73
2022-12-25T05:41:59.327Z,26.67
2022-12-25T05:44:46.018Z,25.58
2022-12-25T05:47:31.579Z,25.08
2022-12-25T05:50:17.011Z,25.60
2022-12-25T05:53:08.090Z,26.65
2022-12-25T05:55:54.117Z,24.63
2022-12-25T05:58:40.429Z,24.33
2022-12-25T06:01:28.808Z,24.13
2022-12-25T06:04:14.425Z,24.15
2022-12-25T06:06:59.866Z,29.00
2022-12-25T06:09:45.047Z,29.83
2022-12-25T06:12:30.437Z,31.33
2022-12-25T06:15:16.004Z,28.23
2022-12-25T06:18:02.975Z,27.83
2022-12-25T06:20:48.778Z,27.02
2022-12-25T06:23:34.123Z,30.80
2022-12-25T06:26:20.518Z,29.25
2022-12-25T06:29:05.838Z,29.60
2022-12-25T06:31:54.998Z,29.85
2022-12-25T06:34:41.982Z,31.20
2022-12-25T06:37:28.150Z,30.43
2022-12-25T06:40:14.049Z,30.55
2022-12-25T06:42:59.359Z,32.30
2022-12-25T06:45:44.738Z,29.10
2022-12-25T06:48:30.462Z,31.17
2022-12-25T06:51:17.416Z,30.80
2022-12-25T06:54:04.061Z,28.48
2022-12-25T06:56:51.140Z,30.23
2022-12-25T06:59:36.780Z,27.05
2022-12-25T07:02:24.124Z,29.25
2022-12-25T07:05:09.914Z,26.33
2022-12-25T07:07:56.659Z,28.98
2022-12-25T07:10:41.971Z,28.10
2022-12-25T07:13:27.108Z,25.70
2022-12-25T07:16:13.466Z,26.30
2022-12-25T07:19:00.318Z,27.70
2022-12-25T07:21:46.302Z,25.70
2022-12-25T07:24:33.520Z,28.35
2022-12-25T07:27:18.953Z,26.52
2022-12-25T07:30:05.207Z,26.88
2022-12-25T07:32:51.779Z,29.80
2022-12-25T07:35:37.335Z,31.10
2022-12-25T07:38:22.818Z,29.90
2022-12-25T07:41:10.708Z,27.05
2022-12-25T07:43:56.304Z,27.85
2022-12-25T07:46:42.016Z,26.73
2022-12-25T07:49:27.820Z,28.20
2022-12-25T07:52:13.625Z,25.90
2022-12-25T07:54:58.857Z,26.88
2022-12-25T07:57:45.632Z,28.67
2022-12-25T08:00:32.863Z,26.30
2022-12-25T08:03:19.210Z,29.02
2022-12-25T08:06:06.944Z,25.33
2022-12-25T08:08:52.758Z,27.08
2022-12-25T08:11:38.945Z,27.27
2022-12-25T08:14:26.089Z,25.73
2022-12-25T08:17:11.804Z,27.02
2022-12-25T08:19:57.421Z,28.15
2022-12-25T08:22:42.989Z,27.52
2022-12-25T08:25:30.039Z,26.92
2022-12-25T08:28:15.855Z,28.27
2022-12-25T08:31:08.808Z,28.42
2022-12-25T08:33:56.452Z,31.23
2022-12-25T08:36:41.830Z,29.65
2022-12-25T08:39:27.727Z,28.10
2022-12-25T08:42:13.253Z,30.13
2022-12-25T08:44:58.608Z,30.70
2022-12-25T08:47:45.608Z,30.10
2022-12-25T08:50:31.905Z,33.00
2022-12-25T08:53:19.387Z,29.88
2022-12-25T08:56:05.344Z,30.07
2022-12-25T08:58:51.057Z,32.13
2022-12-25T09:01:36.776Z,33.85
2022-12-25T09:04:24.036Z,32.53
2022-12-25T09:07:09.565Z,30.70
2022-12-25T09:09:54.776Z,35.57
2022-12-25T09:12:40.253Z,35.88
2022-12-25T09:15:25.752Z,34.60
2022-12-25T09:18:11.603Z,33.25
2022-12-25T09:21:03.821Z,37.55
2022-12-25T09:23:50.287Z,39.50
2022-12-25T09:26:37.377Z,41.30
2022-12-25T09:29:23.126Z,40.58
2022-12-25T09:32:08.624Z,42.38
2022-12-25T09:34:54.105Z,41.75
2022-12-25T09:37:40.779Z,46.53
2022-12-25T09:40:29.766Z,43.92
2022-12-25T09:43:19.362Z,42.17
2022-12-25T09:46:07.597Z,41.72
2022-12-25T09:49:01.652Z,43.83
2022-12-25T09:51:50.228Z,45.77
2022-12-25T09:54:45.030Z,42.50
2022-12-25T09:57:30.317Z,44.45
2022-12-25T10:00:17.424Z,44.00
2022-12-25T10:03:19.326Z,44.72
2022-12-25T10:06:19.134Z,44.40
2022-12-25T10:09:28.695Z,46.50
2022-12-25T10:12:27.524Z,45.35
2022-12-25T10:15:30.768Z,51.70
2022-12-25T10:18:44.728Z,62.10
2022-12-25T10:21:31.361Z,65.63
2022-12-25T10:24:27.832Z,63.55
2022-12-25T10:27:20.533Z,51.97
2022-12-25T10:30:16.032Z,52.08
2022-12-25T10:33:02.270Z,44.67
2022-12-25T10:35:47.618Z,44.93
2022-12-25T10:38:32.811Z,41.67
2022-12-25T10:41:29.249Z,39.30
2022-12-25T10:44:20.385Z,38.85
2022-12-25T10:47:06.165Z,37.95
2022-12-25T10:49:52.016Z,36.80
2022-12-25T10:52:51.971Z,35.75
2022-12-25T10:55:37.484Z,35.55
2022-12-25T10:58:22.793Z,37.03
2022-12-25T11:01:09.664Z,38.20
2022-12-25T11:03:55.020Z,35.80
2022-12-25T11:06:40.257Z,36.17
2022-12-25T11:09:25.762Z,35.72
2022-12-25T11:12:19.767Z,33.80
2022-12-25T11:15:27.738Z,35.33
2022-12-25T11:18:21.162Z,37.33
2022-12-25T11:21:16.412Z,36.53
2022-12-25T11:24:03.446Z,34.38
2022-12-25T11:26:51.019Z,33.53
2022-12-25T11:29:45.520Z,34.20
2022-12-25T11:32:34.117Z,32.80
2022-12-25T11:35:22.524Z,35.00
2022-12-25T11:38:09.413Z,33.65
2022-12-25T11:40:58.949Z,34.65
2022-12-25T11:43:48.769Z,33.95
2022-12-25T11:46:40.333Z,33.30
2022-12-25T11:49:26.154Z,33.78
2022-12-25T11:52:14.870Z,34.25
2022-12-25T11:55:04.972Z,34.65
2022-12-25T11:57:55.449Z,36.67
2022-12-25T12:00:43.162Z,34.30
2022-12-25T12:03:33.075Z,32.50
2022-12-25T12:06:30.032Z,35.75
2022-12-25T12:09:30.868Z,30.60
2022-12-25T12:12:20.773Z,34.47
2022-12-25T12:15:17.494Z,32.53
2022-12-25T12:18:12.152Z,28.83
2022-12-25T12:21:00.605Z,26.35
2022-12-25T12:23:50.359Z,27.83
2022-12-25T12:26:40.979Z,28.10
2022-12-25T12:29:29.693Z,25.60
2022-12-25T12:32:28.938Z,29.25
2022-12-25T12:35:19.709Z,27.85
2022-12-25T12:38:11.873Z,32.13
2022-12-25T12:41:00.311Z,28.65
2022-12-25T12:43:53.340Z,28.43
2022-12-25T12:46:40.378Z,31.80
2022-12-25T12:49:27.828Z,28.58
2022-12-25T12:52:24.272Z,29.30
2022-12-25T12:55:14.770Z,40.17
2022-12-25T12:58:00.533Z,65.77
2022-12-25T13:00:54.159Z,67.57
2022-12-25T13:03:53.247Z,63.42
2022-12-25T13:06:43.885Z,53.42
2022-12-25T13:09:44.364Z,44.28
2022-12-25T13:12:30.266Z,44.27
2022-12-25T13:15:16.053Z,49.05
2022-12-25T13:18:05.926Z,50.05
2022-12-25T13:20:55.455Z,40.53
2022-12-25T13:23:41.461Z,43.67
2022-12-25T13:26:27.389Z,39.30
2022-12-25T13:29:22.693Z,35.95
2022-12-25T13:32:19.293Z,39.13
2022-12-25T13:35:12.690Z,39.83
2022-12-25T13:38:00.391Z,38.53
2022-12-25T13:41:12.409Z,36.27
2022-12-25T13:43:58.897Z,33.80
2022-12-25T13:46:44.640Z,38.60
2022-12-25T13:49:31.247Z,34.38
2022-12-25T13:52:20.388Z,34.63
2022-12-25T13:55:13.627Z,33.10
2022-12-25T13:58:02.345Z,32.00
2022-12-25T14:00:49.941Z,37.22
2022-12-25T14:03:40.122Z,32.72
2022-12-25T14:06:28.272Z,36.90
2022-12-25T14:09:16.064Z,33.80
2022-12-25T14:12:02.128Z,32.08
2022-12-25T14:14:48.548Z,33.05
2022-12-25T14:17:34.113Z,34.30
2022-12-25T14:20:24.687Z,37.33
2022-12-25T14:23:15.781Z,37.80
2022-12-25T14:26:02.461Z,36.85
2022-12-25T14:28:49.988Z,35.53
2022-12-25T14:31:36.097Z,37.33
2022-12-25T14:34:24.679Z,33.58
2022-12-25T14:37:16.102Z,33.03
2022-12-25T14:40:05.196Z,31.88
2022-12-25T14:43:00.734Z,39.63
2022-12-25T14:45:55.124Z,35.80
2022-12-25T14:48:40.810Z,38.83
2022-12-25T14:51:27.067Z,37.47
2022-12-25T14:54:18.333Z,40.88
2022-12-25T14:57:04.471Z,43.22
2022-12-25T15:00:05.673Z,42.13
2022-12-25T15:02:53.697Z,40.10
2022-12-25T15:05:40.121Z,37.63
2022-12-25T15:08:26.019Z,41.85
2022-12-25T15:11:11.251Z,39.22
2022-12-25T15:13:57.651Z,40.08
2022-12-25T15:16:47.072Z,39.58
2022-12-25T15:19:38.311Z,41.07
2022-12-25T15:22:24.371Z,39.80
2022-12-25T15:25:14.285Z,40.78
2022-12-25T15:28:00.342Z,40.53
2022-12-25T15:30:46.272Z,38.08
2022-12-25T15:33:33.337Z,39.03
2022-12-25T15:36:18.992Z,37.08
2022-12-25T15:39:04.707Z,37.97
2022-12-25T15:42:09.135Z,36.75
2022-12-25T15:44:54.567Z,35.80
2022-12-25T15:47:40.184Z,38.60
2022-12-25T15:50:27.292Z,36.60
2022-12-25T15:53:13.134Z,36.65
2022-12-25T15:55:58.769Z,35.95
2022-12-25T15:58:46.848Z,38.38
2022-12-25T16:01:32.343Z,34.67
2022-12-25T16:04:18.086Z,33.70
2022-12-25T16:07:05.420Z,37.30
2022-12-25T16:09:51.496Z,34.88
2022-12-25T16:12:38.972Z,39.38
2022-12-25T16:15:24.485Z,34.83
2022-12-25T16:18:10.599Z,35.17
2022-12-25T16:20:57.199Z,35.55
2022-12-25T16:23:44.279Z,35.58
2022-12-25T16:26:30.726Z,38.35
2022-12-25T16:29:16.238Z,36.43
2022-12-25T16:32:02.008Z,36.30
2022-12-25T16:34:48.921Z,36.67
2022-12-25T16:37:34.994Z,33.13
2022-12-25T16:40:22.168Z,35.50
2022-12-25T16:43:07.588Z,37.27
2022-12-25T16:45:53.220Z,37.67
2022-12-25T16:48:38.846Z,38.40
2022-12-25T16:51:24.638Z,35.20
2022-12-25T16:54:10.637Z,37.40
2022-12-25T16:56:57.516Z,38.57
2022-12-25T16:59:43.509Z,40.03
2022-12-25T17:02:29.483Z,40.38
2022-12-25T17:05:15.082Z,40.33
2022-12-25T17:08:01.496Z,42.33
2022-12-25T17:10:47.324Z,44.33
2022-12-25T17:13:34.123Z,44.78
2022-12-25T17:16:25.005Z,42.33
2022-12-25T17:19:17.659Z,47.90
2022-12-25T17:22:03.366Z,48.28
2022-12-25T17:24:49.019Z,45.33
2022-12-25T17:27:34.571Z,44.95
2022-12-25T17:30:22.551Z,49.67
2022-12-25T17:33:07.903Z,48.88
2022-12-25T17:35:56.128Z,52.90
2022-12-25T17:38:44.631Z,54.97
2022-12-25T17:41:30.454Z,62.53
2022-12-25T17:44:15.975Z,61.78
2022-12-25T17:47:03.089Z,64.00
2022-12-25T17:49:50.222Z,63.47
2022-12-25T17:52:35.596Z,65.07
2022-12-25T17:55:21.605Z,67.70
2022-12-25T17:58:07.958Z,64.03
2022-12-25T18:00:54.245Z,62.33
2022-12-25T18:03:41.950Z,63.22
2022-12-25T18:06:29.701Z,60.97
2022-12-25T18:09:15.126Z,43.10
2022-12-25T18:12:00.534Z,42.53
2022-12-25T18:14:45.875Z,39.97
2022-12-25T18:17:32.591Z,35.70
2022-12-25T18:20:19.850Z,29.03
2022-12-25T18:23:05.415Z,28.70
2022-12-25T18:25:50.794Z,25.25
2022-12-25T18:28:36.259Z,25.88
2022-12-25T18:31:24.966Z,27.75
2022-12-25T18:34:10.733Z,24.93
2022-12-25T18:37:03.065Z,21.63
2022-12-25T18:39:49.148Z,24.48
2022-12-25T18:42:40.945Z,21.10
2022-12-25T18:45:26.899Z,24.45
2022-12-25T18:48:12.909Z,24.57
2022-12-25T18:51:01.372Z,26.35
2022-12-25T18:53:48.422Z,29.05
2022-12-25T18:56:34.033Z,26.33
2022-12-25T18:59:19.786Z,28.13
2022-12-25T19:02:05.870Z,23.57
2022-12-25T19:04:52.588Z,23.90
2022-12-25T19:07:38.081Z,20.58
2022-12-25T19:10:25.341Z,23.52
2022-12-25T19:13:11.273Z,22.95
2022-12-25T19:15:59.622Z,20.77
2022-12-25T19:18:45.388Z,24.15
2022-12-25T19:21:31.065Z,20.98
2022-12-25T19:24:16.516Z,22.27
2022-12-25T19:27:03.504Z,21.05
2022-12-25T19:29:49.183Z,19.43
2022-12-25T19:32:34.974Z,21.48
2022-12-25T19:35:20.827Z,21.20
2022-12-25T19:38:06.492Z,20.10
2022-12-25T19:41:01.850Z,19.60
2022-12-25T19:43:49.548Z,18.27
2022-12-25T19:46:36.799Z,18.75
2022-12-25T19:49:23.868Z,18.35
2022-12-25T19:52:09.917Z,18.52
2022-12-25T19:54:55.553Z,20.13
2022-12-25T19:57:41.591Z,24.60
2022-12-25T20:00:29.055Z,20.63
2022-12-25T20:03:15.068Z,21.58
2022-12-25T20:06:01.064Z,22.73
2022-12-25T20:08:47.075Z,20.00
2022-12-25T20:11:34.097Z,20.43
2022-12-25T20:14:20.172Z,21.92
2022-12-25T20:17:12.153Z,22.75
2022-12-25T20:20:00.853Z,22.25
2022-12-25T20:22:46.764Z,20.83
2022-12-25T20:25:32.751Z,21.23
2022-12-25T20:28:18.744Z,22.98
2022-12-25T20:31:09.163Z,21.67
2022-12-25T20:34:01.094Z,21.55
2022-12-25T20:36:46.766Z,21.10
2022-12-25T20:39:32.282Z,22.17
2022-12-25T20:42:17.813Z,22.52
2022-12-25T20:45:06.734Z,20.52
2022-12-25T20:47:52.610Z,23.67
2022-12-25T20:50:39.999Z,22.23
2022-12-25T20:53:25.795Z,19.77
2022-12-25T20:56:30.361Z,22.40
2022-12-25T20:59:16.055Z,19.50
2022-12-25T21:02:02.187Z,22.38
2022-12-25T21:04:53.994Z,22.25
2022-12-25T21:07:41.230Z,20.70
2022-12-25T21:10:26.803Z,22.17
2022-12-25T21:13:12.257Z,23.05
2022-12-25T21:15:58.847Z,22.27
2022-12-25T21:18:44.698Z,22.27
2022-12-25T21:21:31.055Z,21.13
2022-12-25T21:24:17.863Z,21.80
2022-12-25T21:27:03.812Z,26.45
2022-12-25T21:29:49.470Z,26.83
2022-12-25T21:32:53.236Z,27.33
2022-12-25T21:35:38.805Z,27.57
2022-12-25T21:38:24.170Z,29.25
2022-12-25T21:41:12.380Z,25.02
2022-12-25T21:43:58.046Z,28.63
2022-12-25T21:46:43.763Z,29.55
2022-12-25T21:49:47.900Z,33.13
2022-12-25T21:52:35.452Z,32.97
2022-12-25T21:55:20.836Z,29.13
2022-12-25T21:58:07.717Z,29.65
2022-12-25T22:00:53.166Z,31.48
2022-12-25T22:03:38.652Z,28.57
2022-12-25T22:06:43.165Z,26.17
2022-12-25T22:09:28.952Z,27.67
2022-12-25T22:12:34.787Z,25.70
2022-12-25T22:15:21.642Z,24.65
2022-12-25T22:18:27.139Z,26.13
2022-12-25T22:21:18.139Z,25.70
2022-12-25T22:24:07.186Z,26.73
2022-12-25T22:26:52.432Z,27.30
2022-12-25T22:29:37.782Z,28.77
2022-12-25T22:32:24.618Z,27.63
2022-12-25T22:35:12.336Z,28.80
2022-12-25T22:37:57.917Z,25.63
2022-12-25T22:40:43.376Z,24.42
2022-12-25T22:44:06.209Z,28.05
2022-12-25T22:46:34.970Z,25.23
2022-12-25T22:49:21.901Z,26.98
2022-12-25T22:52:09.319Z,27.02
2022-12-25T22:54:54.874Z,25.20
2022-12-25T22:57:40.313Z,23.70
2022-12-25T23:00:25.775Z,26.03
2022-12-25T23:03:11.464Z,25.67
2022-12-25T23:05:58.663Z,24.08
2022-12-25T23:08:44.029Z,26.42
2022-12-25T23:11:29.481Z,26.52
2022-12-25T23:14:33.794Z,25.20
2022-12-25T23:17:37.919Z,25.15
2022-12-25T23:20:41.711Z,24.70
2022-12-25T23:23:47.160Z,24.25
2022-12-25T23:26:32.732Z,25.73
2022-12-25T23:29:36.614Z,25.23
2022-12-25T23:32:28.174Z,28.35
2022-12-25T23:35:14.453Z,28.85
2022-12-25T23:38:00.178Z,27.52
2022-12-25T23:40:46.890Z,27.38
2022-12-25T23:43:32.581Z,29.03
2022-12-25T23:46:18.274Z,29.40
2022-12-25T23:49:03.882Z,29.35
2022-12-25T23:51:49.693Z,26.60
2022-12-25T23:54:35.378Z,32.40
2022-12-25T23:57:22.241Z,28.03
